Time;durP1;ratioP1;P1;durP2;ratioP2;P2;SDS_P1;SDS_P2;PMS_P1;PMS_P2;Temp;Humidity;BMP_temperature;BMP_pressure;BME280_temperature;BME280_humidity;BME280_pressure;Samples;Min_cycle;Max_cycle;Signal;HPM_P1;HPM_P2
2022/01/19 00:00:06;;;;;;;12.57;8.50;;;;;;;5.48;83.53;102406.94;5011548;28;20455;-73
2022/01/19 00:02:31;;;;;;;15.63;9.75;;;;;;;5.52;83.17;102411.47;5011418;28;20124;-72
2022/01/19 00:04:57;;;;;;;19.70;11.13;;;;;;;5.52;83.60;102408.84;5011303;28;20041;-73
2022/01/19 00:07:22;;;;;;;16.25;9.85;;;;;;;5.57;83.12;102403.81;5010886;28;20038;-73
2022/01/19 00:09:47;;;;;;;17.67;9.07;;;;;;;5.58;82.73;102401.28;5011512;28;20036;-73
2022/01/19 00:12:13;;;;;;;13.98;8.45;;;;;;;5.61;83.12;102392.66;5014130;28;20037;-73
2022/01/19 00:14:38;;;;;;;15.25;9.48;;;;;;;5.60;83.08;102386.50;5016440;28;20042;-72
2022/01/19 00:17:03;;;;;;;16.27;8.82;;;;;;;5.63;83.23;102377.88;5014407;28;20168;-73
2022/01/19 00:19:29;;;;;;;14.27;9.00;;;;;;;5.71;82.99;102364.31;5011502;28;20042;-74
2022/01/19 00:21:54;;;;;;;15.27;8.80;;;;;;;5.69;82.22;102358.09;5011505;28;20099;-73
2022/01/19 00:24:19;;;;;;;17.75;9.77;;;;;;;5.70;82.50;102354.63;5011220;28;20046;-72
2022/01/19 00:26:46;;;;;;;13.32;8.40;;;;;;;5.72;82.65;102358.22;5010812;28;20057;-73
2022/01/19 00:29:12;;;;;;;15.27;8.15;;;;;;;5.66;82.28;102360.59;5010785;28;20112;-72
2022/01/19 00:31:38;;;;;;;13.65;7.68;;;;;;;5.60;82.52;102356.81;5011104;28;20034;-73
2022/01/19 00:34:03;;;;;;;14.15;8.70;;;;;;;5.61;82.70;102353.38;5011183;28;20173;-73
2022/01/19 00:36:29;;;;;;;18.77;9.60;;;;;;;5.63;82.68;102356.94;5010630;28;20098;-73
2022/01/19 00:38:55;;;;;;;13.38;7.90;;;;;;;5.67;82.86;102353.63;5027021;28;20041;-73
2022/01/19 00:41:20;;;;;;;14.95;9.23;;;;;;;5.62;82.18;102347.28;5014947;28;20049;-73
2022/01/19 00:43:45;;;;;;;14.85;8.45;;;;;;;5.59;82.45;102340.19;5015016;28;20068;-73
2022/01/19 00:46:11;;;;;;;18.58;9.05;;;;;;;5.45;82.64;102337.00;5013293;28;20042;-73
2022/01/19 00:48:36;;;;;;;15.60;8.88;;;;;;;5.45;82.61;102349.19;5013593;28;20036;-72
2022/01/19 00:51:02;;;;;;;15.77;8.10;;;;;;;5.47;83.16;102339.66;5022117;28;20033;-73
2022/01/19 00:53:28;;;;;;;16.05;9.27;;;;;;;5.54;83.39;102336.47;5014857;28;20046;-73
2022/01/19 00:55:54;;;;;;;13.50;8.13;;;;;;;5.57;83.21;102341.84;5013591;28;20034;-72
2022/01/19 00:58:19;;;;;;;14.75;8.23;;;;;;;5.53;82.54;102334.72;5014722;28;20037;-73
2022/01/19 01:00:46;;;;;;;14.48;9.35;;;;;;;5.50;82.50;102339.78;5009452;28;20030;-72
2022/01/19 01:03:11;;;;;;;16.02;8.68;;;;;;;5.56;82.93;102334.84;5021728;28;20377;-72
2022/01/19 01:05:38;;;;;;;15.57;9.02;;;;;;;5.60;82.53;102325.38;5014311;28;20033;-73
2022/01/19 01:08:03;;;;;;;13.77;8.02;;;;;;;5.65;82.62;102329.09;5014493;28;20045;-72
2022/01/19 01:10:30;;;;;;;14.25;8.80;;;;;;;5.56;82.42;102334.84;5014494;28;20034;-72
2022/01/19 01:13:06;;;;;;;18.73;10.70;;;;;;;5.56;82.70;102328.72;5014528;28;20431;-72
2022/01/19 01:18:19;;;;;;;14.65;8.40;;;;;;;5.53;82.62;102320.69;5010925;28;20038;-72
2022/01/19 01:20:48;;;;;;;17.20;9.73;;;;;;;5.48;82.61;102312.66;5013065;28;20042;-73
2022/01/19 01:23:14;;;;;;;11.88;8.52;;;;;;;5.47;83.15;102305.63;5014319;28;20116;-73
2022/01/19 01:25:40;;;;;;;14.70;8.10;;;;;;;5.38;82.21;102308.75;5013983;28;20037;-72
2022/01/19 01:28:06;;;;;;;20.27;10.15;;;;;;;5.32;82.54;102303.25;5012729;28;20038;-72
2022/01/19 01:30:33;;;;;;;15.60;8.60;;;;;;;5.34;83.02;102295.44;5012931;28;20075;-73
2022/01/19 01:32:58;;;;;;;15.18;10.27;;;;;;;5.34;82.95;102298.06;5014171;28;20057;-72
2022/01/19 01:35:23;;;;;;;17.23;10.43;;;;;;;5.34;83.08;102284.97;5012608;28;20086;-72
2022/01/19 01:37:49;;;;;;;17.10;9.85;;;;;;;5.30;83.03;102283.06;5009890;28;20118;-73
2022/01/19 01:40:14;;;;;;;15.13;9.70;;;;;;;5.29;82.53;102279.53;5004663;28;20119;-73
2022/01/19 01:42:44;;;;;;;13.75;8.63;;;;;;;5.26;83.00;102263.69;5012534;28;20124;-72
2022/01/19 01:45:13;;;;;;;17.67;10.35;;;;;;;5.30;82.88;102256.88;5020687;28;20121;-72
2022/01/19 01:47:45;;;;;;;14.95;8.93;;;;;;;5.31;82.99;102245.56;5012487;28;20037;-73
2022/01/19 01:55:24;;;;;;;18.90;10.82;;;;;;;5.21;83.77;102229.50;5028144;28;20102;-73
2022/01/19 01:57:50;;;;;;;17.42;9.73;;;;;;;5.26;83.55;102234.91;5012227;28;20049;-72
2022/01/19 02:00:20;;;;;;;15.80;9.88;;;;;;;5.25;83.39;102239.25;5019794;28;20120;-72
2022/01/19 02:02:48;;;;;;;20.33;10.48;;;;;;;5.29;83.19;102242.88;5013341;28;20053;-73
2022/01/19 02:05:17;;;;;;;17.38;10.70;;;;;;;5.30;83.24;102249.03;5011934;28;20026;-72
2022/01/19 02:08:06;;;;;;;14.35;9.32;;;;;;;5.31;82.89;102248.19;5011940;28;20057;-73
2022/01/19 02:10:57;;;;;;;15.50;9.05;;;;;;;5.22;83.15;102246.97;5027573;28;20072;-73
2022/01/19 02:16:32;;;;;;;15.82;9.35;;;;;;;5.18;83.47;102234.56;5025962;28;20027;-73
2022/01/19 02:22:02;;;;;;;19.17;10.77;;;;;;;5.18;83.41;102226.72;5011007;28;20111;-73
2022/01/19 02:24:32;;;;;;;19.65;10.18;;;;;;;5.19;83.31;102214.53;5006237;28;20069;-73
2022/01/19 02:27:10;;;;;;;16.58;10.20;;;;;;;5.17;82.96;102195.25;5011709;28;20054;-73
2022/01/19 02:30:13;;;;;;;17.80;12.20;;;;;;;5.10;83.50;102194.09;5013075;28;20042;-73
2022/01/19 02:40:37;;;;;;;22.02;11.27;;;;;;;4.84;84.20;102156.31;5008027;28;20452;-73
2022/01/19 02:51:02;;;;;;;18.45;10.93;;;;;;;4.80;84.60;102138.75;5021867;28;20034;-73
2022/01/19 02:53:28;;;;;;;17.13;10.88;;;;;;;4.73;84.20;102136.66;5011151;28;20045;-72
2022/01/19 02:55:53;;;;;;;19.73;11.05;;;;;;;4.70;84.39;102133.94;5012300;28;20030;-73
2022/01/19 02:58:21;;;;;;;19.23;11.70;;;;;;;4.61;84.19;102126.56;5011000;28;20034;-73
2022/01/19 03:08:59;;;;;;;17.80;11.70;;;;;;;4.06;84.46;102104.09;5009174;28;20575;-73
2022/01/19 03:11:25;;;;;;;17.63;11.43;;;;;;;3.85;85.05;102093.56;5010106;28;20108;-73
2022/01/19 03:13:52;;;;;;;20.00;12.30;;;;;;;3.73;85.71;102098.22;5014977;28;20034;-73
2022/01/19 03:16:19;;;;;;;20.02;11.73;;;;;;;3.62;85.89;102095.09;5010679;28;20026;-73
2022/01/19 03:18:45;;;;;;;18.88;12.60;;;;;;;3.50;86.09;102087.56;5010894;28;20112;-73
2022/01/19 03:21:10;;;;;;;22.45;13.88;;;;;;;3.40;86.96;102081.84;5010857;28;20042;-73
2022/01/19 03:23:36;;;;;;;24.38;14.23;;;;;;;3.28;87.49;102083.06;5010742;28;20049;-72
2022/01/19 03:26:06;;;;;;;21.45;13.43;;;;;;;3.24;88.14;102077.59;5009893;28;20495;-72
2022/01/19 03:28:32;;;;;;;23.00;13.88;;;;;;;3.17;88.58;102078.13;5008475;28;20642;-73
2022/01/19 03:30:57;;;;;;;23.90;14.70;;;;;;;3.11;88.21;102065.66;5008016;28;20132;-72
2022/01/19 03:33:23;;;;;;;22.60;13.40;;;;;;;3.03;89.07;102061.81;5010157;28;20129;-72
2022/01/19 03:35:49;;;;;;;22.98;15.40;;;;;;;3.02;89.52;102055.69;5010174;28;20030;-72
2022/01/19 03:38:14;;;;;;;22.85;15.02;;;;;;;3.00;89.58;102052.13;5010724;28;20079;-73
2022/01/19 03:40:40;;;;;;;27.15;14.52;;;;;;;3.00;89.10;102052.13;5010499;28;20083;-73
2022/01/19 03:43:06;;;;;;;23.45;13.82;;;;;;;2.97;89.54;102053.69;5010374;28;20113;-73
2022/01/19 03:45:53;;;;;;;26.50;14.45;;;;;;;2.98;89.95;102050.25;5006343;28;20087;-72
2022/01/19 03:48:36;;;;;;;25.20;14.77;;;;;;;3.05;89.80;102055.84;5003403;28;20041;-73
2022/01/19 03:51:02;;;;;;;24.60;15.02;;;;;;;3.20;89.98;102047.88;5010467;28;20501;-73
2022/01/19 03:53:28;;;;;;;24.77;15.15;;;;;;;3.34;89.39;102055.47;5009710;28;20033;-73
2022/01/19 03:55:54;;;;;;;28.48;15.73;;;;;;;3.43;88.89;102056.81;5022152;28;20412;-72
2022/01/19 03:58:19;;;;;;;20.80;13.65;;;;;;;3.54;88.86;102049.47;5011365;28;20037;-72
2022/01/19 04:00:45;;;;;;;22.42;14.25;;;;;;;3.64;88.20;102050.78;5010112;28;20029;-72
2022/01/19 04:03:15;;;;;;;22.70;13.82;;;;;;;3.73;88.00;102046.00;5011717;28;20480;-72
2022/01/19 04:05:56;;;;;;;22.17;14.07;;;;;;;3.82;87.63;102045.50;5009884;28;20451;-72
2022/01/19 04:08:21;;;;;;;18.02;12.88;;;;;;;3.86;87.57;102042.22;5010262;28;20415;-72
2022/01/19 04:10:47;;;;;;;21.88;14.52;;;;;;;3.97;87.14;102029.66;5010172;28;20038;-73
2022/01/19 04:13:31;;;;;;;22.58;15.27;;;;;;;4.05;87.07;102028.25;5011145;28;20030;-73
2022/01/19 04:15:57;;;;;;;22.23;14.27;;;;;;;4.10;86.62;102030.25;5029442;28;20492;-73
2022/01/19 04:18:23;;;;;;;20.15;13.20;;;;;;;4.20;86.21;102033.28;5016504;28;20044;-73
2022/01/19 04:20:51;;;;;;;16.73;12.05;;;;;;;4.25;85.87;102027.41;5016644;28;20034;-72
2022/01/19 04:23:18;;;;;;;21.42;12.77;;;;;;;4.21;85.25;102020.25;5024541;28;20034;-73
2022/01/19 04:25:44;;;;;;;21.70;13.57;;;;;;;4.20;85.04;102018.47;5016017;28;20089;-72
2022/01/19 04:28:09;;;;;;;20.15;12.55;;;;;;;4.24;84.84;102009.94;5016208;28;20069;-73
2022/01/19 04:30:39;;;;;;;21.77;13.10;;;;;;;4.29;84.65;101999.69;5032992;28;20111;-73
2022/01/19 04:33:12;;;;;;;19.77;12.32;;;;;;;4.30;84.27;101994.53;5017869;28;20091;-72
2022/01/19 04:35:49;;;;;;;18.13;11.93;;;;;;;4.35;84.55;102000.84;5016537;28;20450;-72
2022/01/19 04:47:30;;;;;;;16.02;11.20;;;;;;;4.28;83.68;101971.78;5013091;28;20041;-73
2022/01/19 05:15:45;;;;;;;14.35;9.85;;;;;;;2.48;85.55;101936.56;5014734;28;20054;-72
2022/01/19 05:18:14;;;;;;;15.63;9.75;;;;;;;2.40;85.43;101938.78;5015925;28;20040;-73
2022/01/19 05:20:40;;;;;;;15.95;9.95;;;;;;;2.33;86.27;101932.41;5016097;28;20380;-72
2022/01/19 05:23:06;;;;;;;17.77;10.43;;;;;;;2.26;86.45;101919.88;5016102;28;20096;-72
2022/01/19 05:25:31;;;;;;;14.98;9.93;;;;;;;2.22;86.02;101907.50;5022098;28;20038;-72
2022/01/19 05:28:06;;;;;;;16.35;10.13;;;;;;;2.15;86.36;101903.72;5009159;28;20526;-72
2022/01/19 05:30:32;;;;;;;13.82;8.77;;;;;;;2.10;86.51;101902.59;5012689;28;20025;-72
2022/01/19 05:32:58;;;;;;;13.73;8.63;;;;;;;2.06;86.41;101895.44;5019669;28;20033;-72
2022/01/19 05:35:24;;;;;;;13.18;8.70;;;;;;;2.00;86.42;101891.63;5012688;28;20034;-72
2022/01/19 05:38:08;;;;;;;12.30;7.45;;;;;;;1.94;86.45;101889.63;5010467;28;20072;-72
2022/01/19 05:40:46;;;;;;;9.82;6.53;;;;;;;1.87;86.44;101884.91;5012316;28;20448;-74
2022/01/19 05:43:11;;;;;;;8.73;5.95;;;;;;;1.81;86.80;101884.56;5013119;28;20080;-72
2022/01/19 05:45:37;;;;;;;13.18;7.47;;;;;;;1.72;86.58;101875.50;5010356;28;20030;-72
2022/01/19 05:48:09;;;;;;;10.48;6.35;;;;;;;1.64;86.75;101874.22;5028451;28;20492;-72
2022/01/19 05:50:37;;;;;;;17.70;11.52;;;;;;;1.60;86.86;101881.75;5013770;28;20037;-72
2022/01/19 05:53:07;;;;;;;13.95;8.00;;;;;;;1.54;86.99;101866.72;5012370;28;20038;-73
2022/01/19 05:55:32;;;;;;;11.77;7.03;;;;;;;1.49;87.29;101871.72;5012671;28;20029;-72
2022/01/19 05:57:58;;;;;;;11.05;6.68;;;;;;;1.43;87.75;101868.78;5012980;28;20037;-72
2022/01/19 06:00:24;;;;;;;10.68;7.22;;;;;;;1.38;87.83;101869.34;5009820;28;20026;-72
2022/01/19 06:02:52;;;;;;;15.27;9.88;;;;;;;1.33;87.69;101860.41;5010531;28;20554;-72
2022/01/19 06:05:24;;;;;;;12.27;7.78;;;;;;;1.26;87.18;101860.09;5009871;28;20072;-72
2022/01/19 06:08:29;;;;;;;;;;;;;;;1.16;87.47;101856.94;5011982;28;20037;-73
2022/01/19 06:10:55;;;;;;;11.85;7.47;;;;;;;1.08;88.15;101846.13;5011286;28;19917;-72
2022/01/19 06:13:22;;;;;;;16.45;10.60;;;;;;;1.04;87.60;101849.38;5012127;28;20084;-72
2022/01/19 06:15:48;;;;;;;14.38;9.55;;;;;;;0.98;88.11;101847.34;5012958;28;20080;-72
2022/01/19 06:18:16;;;;;;;14.10;9.00;;;;;;;0.93;87.88;101847.91;5011791;28;20025;-72
2022/01/19 06:20:42;;;;;;;11.40;7.53;;;;;;;0.85;87.76;101840.56;5011904;28;20034;-73
2022/01/19 06:23:08;;;;;;;10.93;6.50;;;;;;;0.80;87.81;101836.84;5011806;28;20554;-72
2022/01/19 06:25:39;;;;;;;10.38;6.85;;;;;;;0.75;87.94;101833.09;5011499;28;20030;-72
2022/01/19 06:28:05;;;;;;;15.30;9.85;;;;;;;0.70;87.93;101829.34;5020092;28;20405;-72
2022/01/19 06:30:31;;;;;;;14.13;8.10;;;;;;;0.65;88.32;101836.00;5026712;28;20034;-72
2022/01/19 06:32:57;;;;;;;11.70;7.00;;;;;;;0.58;88.68;101821.78;5008948;28;20037;-72
2022/01/19 06:35:23;;;;;;;14.20;8.00;;;;;;;0.56;88.72;101820.81;5010595;28;20506;-72
2022/01/19 06:38:08;;;;;;;11.37;7.03;;;;;;;0.50;88.67;101815.28;5010794;28;20061;-72
2022/01/19 06:40:52;;;;;;;9.48;6.00;;;;;;;0.47;88.78;101819.41;5011053;28;20049;-72
2022/01/19 06:43:17;;;;;;;12.33;7.63;;;;;;;0.38;88.29;101815.50;4993049;28;20030;-73
2022/01/19 06:45:43;;;;;;;10.48;7.22;;;;;;;0.33;88.26;101816.94;5011146;28;20041;-72
2022/01/19 06:48:08;;;;;;;12.60;7.60;;;;;;;0.28;88.71;101807.09;5013448;28;20390;-72
2022/01/19 06:50:34;;;;;;;14.93;8.53;;;;;;;0.24;89.00;101811.25;5021371;28;20472;-72
2022/01/19 06:53:00;;;;;;;9.97;6.53;;;;;;;0.16;88.55;101817.72;5028543;28;20095;-72
2022/01/19 06:55:25;;;;;;;11.00;6.83;;;;;;;0.12;89.18;101807.94;5011772;28;20064;-73
2022/01/19 06:57:53;;;;;;;11.90;7.60;;;;;;;0.16;89.65;101796.94;5011653;28;20078;-72
2022/01/19 07:00:38;;;;;;;12.07;7.23;;;;;;;0.12;89.47;101787.19;5006538;28;20048;-72
2022/01/19 07:03:06;;;;;;;15.17;9.33;;;;;;;0.13;89.27;101795.06;5012741;28;20030;-72
2022/01/19 07:05:39;;;;;;;;;;;;;;;0.12;89.53;101792.38;5019733;28;20443;-72
2022/01/19 07:08:24;;;;;;;12.50;7.67;;;;;;;0.03;89.27;101784.03;5007462;28;19913;-72
2022/01/19 07:10:50;;;;;;;11.73;7.50;;;;;;;-0.10;89.18;101788.56;5011088;28;20026;-72
2022/01/19 07:13:17;;;;;;;12.47;7.83;;;;;;;-0.20;89.32;101778.47;5010978;28;20037;-72
2022/01/19 07:15:43;;;;;;;18.80;11.73;;;;;;;-0.23;89.59;101775.69;5019008;28;20061;-72
2022/01/19 07:18:09;;;;;;;17.27;10.37;;;;;;;-0.22;89.48;101761.91;5010832;28;20044;-72
2022/01/19 07:20:35;;;;;;;18.33;11.43;;;;;;;-0.20;89.78;101760.31;5010822;28;20034;-72
2022/01/19 07:23:01;;;;;;;19.57;11.03;;;;;;;-0.21;90.09;101755.91;5011956;28;20044;-72
2022/01/19 07:25:29;;;;;;;15.50;8.57;;;;;;;-0.20;89.42;101760.31;5010302;28;20463;-72
2022/01/19 07:27:56;;;;;;;13.23;7.97;;;;;;;-0.25;89.50;101761.72;5010129;28;20112;-73
2022/01/19 07:30:22;;;;;;;12.43;8.07;;;;;;;-0.32;88.96;101757.88;5010002;28;20561;-72
2022/01/19 07:32:49;;;;;;;11.63;6.73;;;;;;;-0.36;89.15;101752.44;5010106;28;20381;-72
2022/01/19 07:35:16;;;;;;;13.93;8.87;;;;;;;-0.38;89.17;101748.88;5010008;28;20037;-72
2022/01/19 07:37:42;;;;;;;12.17;7.53;;;;;;;-0.42;88.96;101750.38;5008937;28;20452;-72
2022/01/19 07:40:10;;;;;;;14.90;8.27;;;;;;;-0.45;89.48;101743.34;5008659;28;20125;-72
2022/01/19 07:42:35;;;;;;;15.57;9.60;;;;;;;-0.54;89.39;101732.41;5010143;28;20041;-72
2022/01/19 07:45:01;;;;;;;16.73;10.23;;;;;;;-0.50;90.25;101728.28;5011808;28;20046;-72
2022/01/19 07:47:41;;;;;;;13.83;8.60;;;;;;;-0.42;89.97;101718.34;5011606;28;20057;-72
2022/01/19 07:50:18;;;;;;;17.47;10.97;;;;;;;-0.36;89.76;101717.03;5009325;28;20038;-72
2022/01/19 07:52:51;;;;;;;17.30;10.43;;;;;;;-0.30;89.65;101708.69;5008599;28;20037;-72
2022/01/19 07:55:23;;;;;;;21.48;12.98;;;;;;;-0.24;90.10;101701.25;5010428;28;20141;-72
2022/01/19 07:58:10;;;;;;;14.97;8.83;;;;;;;-0.20;89.43;101705.81;5009776;28;20069;-71
2022/01/19 08:00:44;;;;;;;15.03;10.07;;;;;;;-0.16;89.83;101689.59;5006371;28;20038;-72
2022/01/19 08:03:27;;;;;;;18.33;11.17;;;;;;;-0.07;89.72;101695.31;5010096;28;20045;-72
2022/01/19 08:06:02;;;;;;;19.30;11.70;;;;;;;0.00;90.33;101686.16;5009486;28;20052;-72
2022/01/19 08:08:30;;;;;;;15.77;11.00;;;;;;;0.13;90.94;101683.44;5009646;28;20050;-72
2022/01/19 08:10:56;;;;;;;16.40;10.80;;;;;;;0.25;91.25;101674.50;5008259;28;20141;-72
2022/01/19 08:13:21;;;;;;;14.80;10.53;;;;;;;0.32;90.63;101677.53;5009526;28;20034;-72
2022/01/19 08:15:48;;;;;;;14.00;8.83;;;;;;;0.42;90.93;101682.41;5007793;28;20042;-73
2022/01/19 08:18:13;;;;;;;14.37;8.67;;;;;;;0.56;90.95;101698.72;5008053;28;20034;-72
2022/01/19 08:20:42;;;;;;;18.00;11.00;;;;;;;0.70;90.99;101694.22;5007801;28;20102;-72
2022/01/19 08:23:10;;;;;;;16.97;10.37;;;;;;;0.80;91.15;101691.31;5007526;28;20040;-72
2022/01/19 08:25:47;;;;;;;16.93;10.00;;;;;;;0.91;91.04;101691.84;5009269;28;20040;-72
2022/01/19 08:28:13;;;;;;;21.33;12.70;;;;;;;1.04;91.65;101685.56;5009465;28;20124;-72
2022/01/19 08:30:39;;;;;;;23.27;13.38;;;;;;;1.20;90.94;101680.31;5009911;28;20029;-72
2022/01/19 08:33:04;;;;;;;25.67;16.65;;;;;;;1.34;90.73;101685.31;5009964;28;20030;-72
2022/01/19 08:35:42;;;;;;;23.67;13.63;;;;;;;1.46;91.17;101681.63;5009695;28;20037;-72
2022/01/19 08:38:25;;;;;;;20.67;12.70;;;;;;;1.57;90.41;101686.47;5008142;28;20048;-73
2022/01/19 08:41:04;;;;;;;18.95;10.70;;;;;;;1.65;89.77;101683.44;5014806;28;20554;-72
2022/01/19 08:43:32;;;;;;;15.73;10.18;;;;;;;1.69;89.97;101680.13;5009687;28;20033;-72
2022/01/19 08:45:57;;;;;;;16.35;10.60;;;;;;;1.74;89.18;101677.75;5009786;28;20500;-72
2022/01/19 08:48:32;;;;;;;15.70;9.60;;;;;;;1.82;89.07;101670.31;5009387;28;20033;-72
2022/01/19 08:51:08;;;;;;;15.63;10.02;;;;;;;1.87;88.96;101666.22;5005745;28;20792;-72
2022/01/19 08:53:41;;;;;;;15.75;9.82;;;;;;;1.94;88.34;101658.78;5003974;28;20034;-72
2022/01/19 08:56:22;;;;;;;16.45;12.48;;;;;;;2.01;88.15;101657.34;5009370;28;20030;-72
2022/01/19 08:58:48;;;;;;;17.67;11.55;;;;;;;2.04;88.76;101647.06;5010752;28;20037;-72
2022/01/19 09:01:13;;;;;;;16.40;11.63;;;;;;;2.11;88.00;101656.94;5014036;28;20033;-72
2022/01/19 09:03:39;;;;;;;18.27;11.68;;;;;;;2.16;87.66;101652.84;5014479;28;20073;-72
2022/01/19 09:06:04;;;;;;;15.70;10.40;;;;;;;2.22;87.17;101640.94;5014235;28;20030;-72
2022/01/19 09:08:31;;;;;;;16.42;11.15;;;;;;;2.26;86.90;101645.47;5010330;28;20096;-72
2022/01/19 09:10:58;;;;;;;15.80;11.38;;;;;;;2.29;87.14;101643.00;5014346;28;20048;-72
2022/01/19 09:13:25;;;;;;;17.42;11.10;;;;;;;2.34;87.33;101638.88;5014275;28;20044;-72
2022/01/19 09:15:50;;;;;;;16.95;10.55;;;;;;;2.46;86.51;101634.19;5014035;28;20030;-72
2022/01/19 09:18:16;;;;;;;17.52;12.35;;;;;;;2.48;85.86;101629.94;5014116;28;20412;-72
2022/01/19 09:20:41;;;;;;;19.23;13.45;;;;;;;2.39;85.98;101625.25;5014533;28;20038;-72
2022/01/19 09:23:07;;;;;;;17.42;11.85;;;;;;;2.40;85.81;101631.34;5014166;28;20041;-72
2022/01/19 09:25:32;;;;;;;19.02;13.43;;;;;;;2.36;85.82;101629.44;5013988;28;20484;-72
2022/01/19 09:27:58;;;;;;;19.33;14.45;;;;;;;2.34;86.43;101616.31;5014089;28;20577;-72
2022/01/19 09:30:25;;;;;;;16.25;12.32;;;;;;;2.40;86.57;101615.69;5012039;28;20052;-72
2022/01/19 09:33:05;;;;;;;18.52;13.07;;;;;;;2.59;85.95;101615.69;5013836;28;20135;-73
2022/01/19 09:35:39;;;;;;;14.77;12.32;;;;;;;2.82;85.70;101613.19;5013425;28;20034;-72
2022/01/19 09:38:04;;;;;;;17.08;12.45;;;;;;;2.97;85.56;101611.22;5011159;28;20046;-72
2022/01/19 09:40:30;;;;;;;14.40;11.30;;;;;;;2.99;84.91;101604.34;5013988;28;20030;-72
2022/01/19 09:42:55;;;;;;;12.65;9.43;;;;;;;3.00;83.42;101611.34;5013745;28;20500;-72
2022/01/19 09:45:21;;;;;;;14.32;11.00;;;;;;;3.07;83.86;101600.34;5020527;28;20057;-72
2022/01/19 09:47:46;;;;;;;13.75;10.68;;;;;;;3.15;83.60;101603.28;5013294;28;20455;-72
2022/01/19 09:50:11;;;;;;;14.20;10.82;;;;;;;3.26;83.42;101601.97;5013681;28;20455;-72
2022/01/19 09:52:39;;;;;;;13.00;10.10;;;;;;;3.23;82.02;101598.38;5010479;28;20038;-72
2022/01/19 09:55:06;;;;;;;12.35;9.18;;;;;;;3.33;82.25;101603.13;5013023;28;20362;-72
2022/01/19 09:57:33;;;;;;;10.85;8.27;;;;;;;3.28;81.59;101597.72;5011601;28;20041;-73
2022/01/19 09:59:58;;;;;;;10.75;8.50;;;;;;;3.32;82.45;101592.63;5013237;28;20032;-72
2022/01/19 10:02:23;;;;;;;10.02;8.13;;;;;;;3.43;81.67;101597.47;5013232;28;20492;-72
2022/01/19 10:04:50;;;;;;;9.02;7.57;;;;;;;3.58;82.06;101591.06;5013281;28;20033;-72
2022/01/19 10:07:18;;;;;;;22.65;15.50;;;;;;;3.80;83.66;101577.09;5013289;28;20045;-72
2022/01/19 10:09:50;;;;;;;20.30;14.73;;;;;;;3.73;82.98;101565.53;5013374;28;20026;-72
2022/01/19 10:18:21;;;;;;;12.30;9.45;;;;;;;3.95;80.75;101542.00;5011095;28;20061;-72
2022/01/19 10:21:02;;;;;;;11.07;8.93;;;;;;;4.13;80.35;101530.44;5013201;28;20044;-72
2022/01/19 10:23:44;;;;;;;10.00;7.97;;;;;;;4.26;79.57;101531.78;5013115;28;20041;-72
2022/01/19 10:26:13;;;;;;;11.73;9.02;;;;;;;4.24;78.13;101542.16;5010487;28;20033;-72
2022/01/19 10:29:07;;;;;;;12.45;9.50;;;;;;;4.02;79.11;101542.25;5011694;28;20037;-72
2022/01/19 10:31:36;;;;;;;10.70;9.00;;;;;;;3.72;79.53;101532.41;5010404;28;20507;-72
2022/01/19 10:34:15;;;;;;;10.90;8.25;;;;;;;3.69;79.19;101527.06;5010637;28;20396;-72
2022/01/19 10:36:43;;;;;;;11.07;8.90;;;;;;;3.73;79.44;101515.94;5009194;28;20077;-72
2022/01/19 10:39:08;;;;;;;10.73;8.85;;;;;;;3.70;78.91;101508.00;5009973;28;20045;-73
2022/01/19 10:41:33;;;;;;;10.05;7.82;;;;;;;3.59;79.06;101506.69;5012088;28;20658;-72
2022/01/19 10:43:59;;;;;;;12.15;9.30;;;;;;;3.64;79.29;101502.50;5012637;28;20087;-72
2022/01/19 10:46:34;;;;;;;13.43;8.82;;;;;;;3.77;79.66;101499.53;5019473;28;20037;-72
2022/01/19 10:49:04;;;;;;;11.88;9.13;;;;;;;3.98;79.75;101482.88;5012384;28;20045;-72
2022/01/19 10:51:36;;;;;;;15.02;10.30;;;;;;;4.11;78.94;101479.84;5010514;28;20481;-73
2022/01/19 10:54:09;;;;;;;12.45;9.70;;;;;;;4.10;78.37;101473.75;5011977;28;20048;-72
2022/01/19 10:56:35;;;;;;;;;;;;;;;4.06;77.87;101470.97;5010770;28;20495;-73
2022/01/19 10:59:05;;;;;;;12.43;9.10;;;;;;;4.18;77.94;101455.72;5010414;28;19920;-72
2022/01/19 11:01:42;;;;;;;14.18;9.75;;;;;;;4.08;78.02;101459.72;5011747;28;20049;-73
2022/01/19 11:04:30;;;;;;;13.88;9.43;;;;;;;4.18;77.49;101458.34;5008512;28;20028;-73
2022/01/19 11:07:11;;;;;;;12.75;9.50;;;;;;;4.10;77.27;101462.41;5009435;28;20121;-73
2022/01/19 11:09:45;;;;;;;15.00;10.27;;;;;;;4.08;77.66;101454.50;5009169;28;20152;-72
2022/01/19 11:12:15;;;;;;;13.07;10.05;;;;;;;4.02;77.65;101458.66;5011986;28;20518;-72
2022/01/19 11:14:41;;;;;;;11.77;9.23;;;;;;;3.94;77.35;101461.88;5011703;28;20484;-72
2022/01/19 11:17:08;;;;;;;15.38;10.45;;;;;;;3.98;78.12;101451.53;5012064;28;20120;-73
2022/01/19 11:19:39;;;;;;;14.40;10.93;;;;;;;4.09;77.95;101442.38;5012232;28;20042;-73
2022/01/19 11:22:23;;;;;;;15.23;11.52;;;;;;;4.22;76.98;101433.19;5012057;28;20057;-72
2022/01/19 11:25:04;;;;;;;14.38;9.73;;;;;;;4.20;78.08;101421.81;5003812;28;20034;-72
2022/01/19 11:27:38;;;;;;;13.40;10.18;;;;;;;4.36;77.79;101411.91;5011895;28;20037;-72
2022/01/19 11:30:11;;;;;;;13.50;10.50;;;;;;;4.40;77.04;101410.28;5011921;28;20128;-72
2022/01/19 11:32:37;;;;;;;11.65;8.43;;;;;;;4.47;76.33;101411.41;5011919;28;20030;-72
2022/01/19 11:35:04;;;;;;;12.00;8.70;;;;;;;4.39;76.04;101401.56;5011613;28;20447;-72
2022/01/19 11:37:38;;;;;;;12.05;9.13;;;;;;;4.52;76.20;101399.34;5011783;28;20034;-72
2022/01/19 11:40:12;;;;;;;11.55;8.68;;;;;;;4.63;76.38;101394.47;5007907;28;20100;-72
2022/01/19 11:42:38;;;;;;;11.75;9.43;;;;;;;4.66;75.14;101386.72;5008390;28;20595;-72
2022/01/19 11:45:07;;;;;;;13.57;9.52;;;;;;;4.65;75.72;101385.84;5011457;28;20044;-72
2022/01/19 11:47:32;;;;;;;10.43;8.13;;;;;;;4.95;75.42;101369.31;5011244;28;20095;-72
2022/01/19 11:50:07;;;;;;;9.15;7.05;;;;;;;4.96;74.27;101355.41;5011527;28;20125;-72
2022/01/19 11:52:34;;;;;;;11.77;8.30;;;;;;;4.98;73.81;101338.03;5007486;28;20065;-73
2022/01/19 11:55:14;;;;;;;8.80;7.47;;;;;;;4.92;72.46;101335.22;5011464;28;20057;-72
2022/01/19 11:57:41;;;;;;;8.88;6.85;;;;;;;4.94;72.87;101333.53;5011294;28;20030;-72
2022/01/19 12:00:21;;;;;;;10.32;7.93;;;;;;;5.12;72.86;101322.72;5011189;28;20034;-73
2022/01/19 12:02:49;;;;;;;10.52;8.23;;;;;;;5.16;72.86;101306.25;5010220;28;20037;-74
2022/01/19 12:05:19;;;;;;;11.15;8.05;;;;;;;5.21;72.40;101292.47;5009754;28;20100;-73
2022/01/19 12:07:56;;;;;;;10.95;8.68;;;;;;;5.28;72.65;101270.84;5006791;28;20462;-73
2022/01/19 12:10:39;;;;;;;10.05;8.02;;;;;;;5.01;72.10;101254.41;5011522;28;20123;-72
2022/01/19 12:16:03;;;;;;;9.63;8.20;;;;;;;5.57;72.59;101235.81;5009597;28;20092;-73
2022/01/19 12:18:51;;;;;;;10.10;8.38;;;;;;;5.49;71.41;101238.22;5011377;28;20049;-73
2022/01/19 12:21:37;;;;;;;10.35;8.27;;;;;;;5.55;71.66;101222.66;5005781;28;20038;-73
2022/01/19 12:24:37;;;;;;;11.15;8.23;;;;;;;5.71;70.59;101224.84;5006852;28;20063;-72
2022/01/19 12:27:09;;;;;;;13.45;10.80;;;;;;;5.59;71.52;101221.91;5013486;28;20065;-72
2022/01/19 12:29:36;;;;;;;16.85;11.75;;;;;;;5.67;72.36;101224.72;5008135;28;20045;-73
2022/01/19 12:32:08;;;;;;;10.27;8.93;;;;;;;5.81;71.92;101209.34;5010822;28;20457;-72
2022/01/19 12:34:48;;;;;;;10.25;8.05;;;;;;;5.86;71.06;101199.84;5011201;28;20041;-73
2022/01/19 12:37:32;;;;;;;10.02;8.05;;;;;;;5.66;71.22;101194.16;5013629;28;20103;-73
2022/01/19 12:40:01;;;;;;;15.95;10.05;;;;;;;5.62;71.36;101184.44;5010517;28;20068;-72
2022/01/19 12:42:41;;;;;;;11.48;8.93;;;;;;;5.64;71.06;101182.75;5013663;28;20034;-73
2022/01/19 12:45:17;;;;;;;9.93;8.27;;;;;;;5.78;71.66;101185.69;5014859;28;20033;-72
2022/01/19 12:47:46;;;;;;;10.60;8.68;;;;;;;5.91;71.49;101177.28;5014897;28;20377;-74
2022/01/19 12:50:11;;;;;;;12.18;8.52;;;;;;;5.90;70.90;101179.00;5013887;28;20049;-73
2022/01/19 12:52:45;;;;;;;13.32;9.68;;;;;;;5.97;71.08;101172.19;5013484;28;20034;-72
2022/01/19 12:55:13;;;;;;;9.98;8.65;;;;;;;6.03;70.40;101174.97;5010815;28;20030;-73